sensor_id;sensor_type;location;lat;lon;timestamp;P1;durP1;ratioP1;P2;durP2;ratioP2
15067;SDS011;7633;60.024;18.770;2023-03-11T00:00:11;0.90;;;0.90;;
15067;SDS011;7633;60.024;18.770;2023-03-11T00:02:43;1.30;;;1.20;;
15067;SDS011;7633;60.024;18.770;2023-03-11T00:05:11;0.93;;;0.90;;
15067;SDS011;7633;60.024;18.770;2023-03-11T00:07:37;1.67;;;0.97;;
15067;SDS011;7633;60.024;18.770;2023-03-11T00:10:04;0.93;;;0.83;;
15067;SDS011;7633;60.024;18.770;2023-03-11T00:12:29;0.60;;;0.60;;
15067;SDS011;7633;60.024;18.770;2023-03-11T00:14:55;0.70;;;0.63;;
15067;SDS011;7633;60.024;18.770;2023-03-11T00:17:20;1.00;;;0.70;;
15067;SDS011;7633;60.024;18.770;2023-03-11T00:19:45;0.37;;;0.37;;
15067;SDS011;7633;60.024;18.770;2023-03-11T00:22:11;0.70;;;0.60;;
15067;SDS011;7633;60.024;18.770;2023-03-11T00:24:37;2.20;;;0.80;;
15067;SDS011;7633;60.024;18.770;2023-03-11T00:27:02;0.70;;;0.57;;
15067;SDS011;7633;60.024;18.770;2023-03-11T00:29:28;0.57;;;0.57;;
15067;SDS011;7633;60.024;18.770;2023-03-11T00:31:53;0.77;;;0.60;;
15067;SDS011;7633;60.024;18.770;2023-03-11T00:34:19;0.57;;;0.50;;
15067;SDS011;7633;60.024;18.770;2023-03-11T00:36:44;0.80;;;0.60;;
15067;SDS011;7633;60.024;18.770;2023-03-11T00:39:09;0.90;;;0.80;;
15067;SDS011;7633;60.024;18.770;2023-03-11T00:41:35;1.00;;;1.00;;
15067;SDS011;7633;60.024;18.770;2023-03-11T00:44:00;0.90;;;0.80;;
15067;SDS011;7633;60.024;18.770;2023-03-11T00:46:26;0.80;;;0.80;;
15067;SDS011;7633;60.024;18.770;2023-03-11T00:48:51;0.77;;;0.60;;
15067;SDS011;7633;60.024;18.770;2023-03-11T00:51:16;0.60;;;0.60;;
15067;SDS011;7633;60.024;18.770;2023-03-11T00:53:42;1.23;;;0.90;;
15067;SDS011;7633;60.024;18.770;2023-03-11T00:56:08;0.30;;;0.30;;
15067;SDS011;7633;60.024;18.770;2023-03-11T00:58:33;0.60;;;0.60;;
15067;SDS011;7633;60.024;18.770;2023-03-11T01:01:00;0.60;;;0.60;;
15067;SDS011;7633;60.024;18.770;2023-03-11T01:03:25;0.60;;;0.60;;
15067;SDS011;7633;60.024;18.770;2023-03-11T01:05:51;0.60;;;0.47;;
15067;SDS011;7633;60.024;18.770;2023-03-11T01:08:17;0.67;;;0.67;;
15067;SDS011;7633;60.024;18.770;2023-03-11T01:10:43;0.50;;;0.50;;
15067;SDS011;7633;60.024;18.770;2023-03-11T01:13:11;1.03;;;0.70;;
15067;SDS011;7633;60.024;18.770;2023-03-11T01:15:41;0.70;;;0.70;;
15067;SDS011;7633;60.024;18.770;2023-03-11T01:18:13;1.40;;;0.53;;
15067;SDS011;7633;60.024;18.770;2023-03-11T01:20:40;0.97;;;0.70;;
15067;SDS011;7633;60.024;18.770;2023-03-11T01:23:06;0.67;;;0.60;;
15067;SDS011;7633;60.024;18.770;2023-03-11T01:25:32;0.50;;;0.50;;
15067;SDS011;7633;60.024;18.770;2023-03-11T01:27:57;0.93;;;0.70;;
15067;SDS011;7633;60.024;18.770;2023-03-11T01:30:24;0.60;;;0.60;;
15067;SDS011;7633;60.024;18.770;2023-03-11T01:32:50;0.33;;;0.33;;
15067;SDS011;7633;60.024;18.770;2023-03-11T01:35:17;0.70;;;0.57;;
15067;SDS011;7633;60.024;18.770;2023-03-11T01:37:42;0.57;;;0.50;;
15067;SDS011;7633;60.024;18.770;2023-03-11T01:40:10;0.87;;;0.83;;
15067;SDS011;7633;60.024;18.770;2023-03-11T01:42:38;0.70;;;0.50;;
15067;SDS011;7633;60.024;18.770;2023-03-11T01:45:12;0.63;;;0.50;;
15067;SDS011;7633;60.024;18.770;2023-03-11T01:47:48;0.50;;;0.50;;
15067;SDS011;7633;60.024;18.770;2023-03-11T01:50:13;1.60;;;0.63;;
15067;SDS011;7633;60.024;18.770;2023-03-11T01:52:39;0.83;;;0.67;;
15067;SDS011;7633;60.024;18.770;2023-03-11T01:55:04;0.80;;;0.57;;
15067;SDS011;7633;60.024;18.770;2023-03-11T01:57:30;0.60;;;0.47;;
15067;SDS011;7633;60.024;18.770;2023-03-11T01:59:56;0.70;;;0.70;;
15067;SDS011;7633;60.024;18.770;2023-03-11T02:02:24;0.77;;;0.70;;
15067;SDS011;7633;60.024;18.770;2023-03-11T02:04:50;0.50;;;0.50;;
15067;SDS011;7633;60.024;18.770;2023-03-11T02:07:16;0.60;;;0.60;;
15067;SDS011;7633;60.024;18.770;2023-03-11T02:09:41;1.20;;;0.43;;
15067;SDS011;7633;60.024;18.770;2023-03-11T02:12:08;0.80;;;0.50;;
15067;SDS011;7633;60.024;18.770;2023-03-11T02:14:34;0.60;;;0.60;;
15067;SDS011;7633;60.024;18.770;2023-03-11T02:16:59;0.43;;;0.40;;
15067;SDS011;7633;60.024;18.770;2023-03-11T02:22:06;0.80;;;0.40;;
15067;SDS011;7633;60.024;18.770;2023-03-11T02:24:38;1.93;;;0.67;;
15067;SDS011;7633;60.024;18.770;2023-03-11T02:27:13;0.70;;;0.70;;
15067;SDS011;7633;60.024;18.770;2023-03-11T02:29:39;0.60;;;0.60;;
15067;SDS011;7633;60.024;18.770;2023-03-11T02:32:06;0.70;;;0.70;;
15067;SDS011;7633;60.024;18.770;2023-03-11T02:34:33;0.43;;;0.43;;
15067;SDS011;7633;60.024;18.770;2023-03-11T02:36:59;0.50;;;0.50;;
15067;SDS011;7633;60.024;18.770;2023-03-11T02:39:29;0.80;;;0.70;;
15067;SDS011;7633;60.024;18.770;2023-03-11T02:41:55;0.67;;;0.40;;
15067;SDS011;7633;60.024;18.770;2023-03-11T02:44:21;0.93;;;0.57;;
15067;SDS011;7633;60.024;18.770;2023-03-11T02:46:51;0.60;;;0.60;;
15067;SDS011;7633;60.024;18.770;2023-03-11T02:49:22;0.50;;;0.50;;
15067;SDS011;7633;60.024;18.770;2023-03-11T02:51:50;1.03;;;0.70;;
15067;SDS011;7633;60.024;18.770;2023-03-11T02:54:26;1.10;;;0.53;;
15067;SDS011;7633;60.024;18.770;2023-03-11T02:56:52;0.50;;;0.50;;
15067;SDS011;7633;60.024;18.770;2023-03-11T02:59:20;0.50;;;0.50;;
15067;SDS011;7633;60.024;18.770;2023-03-11T03:01:49;1.23;;;0.83;;
15067;SDS011;7633;60.024;18.770;2023-03-11T03:04:14;2.37;;;0.50;;
15067;SDS011;7633;60.024;18.770;2023-03-11T03:06:40;1.00;;;0.73;;
15067;SDS011;7633;60.024;18.770;2023-03-11T03:09:05;0.80;;;0.70;;
15067;SDS011;7633;60.024;18.770;2023-03-11T03:11:33;1.47;;;0.67;;
15067;SDS011;7633;60.024;18.770;2023-03-11T03:14:04;0.90;;;0.40;;
15067;SDS011;7633;60.024;18.770;2023-03-11T03:16:33;0.87;;;0.60;;
15067;SDS011;7633;60.024;18.770;2023-03-11T03:19:08;1.07;;;0.80;;
15067;SDS011;7633;60.024;18.770;2023-03-11T03:21:45;1.07;;;0.80;;
15067;SDS011;7633;60.024;18.770;2023-03-11T03:24:16;1.63;;;0.70;;
15067;SDS011;7633;60.024;18.770;2023-03-11T03:26:43;0.80;;;0.80;;
15067;SDS011;7633;60.024;18.770;2023-03-11T03:29:08;1.07;;;0.70;;
15067;SDS011;7633;60.024;18.770;2023-03-11T03:31:34;0.53;;;0.53;;
15067;SDS011;7633;60.024;18.770;2023-03-11T03:33:59;1.00;;;0.50;;
15067;SDS011;7633;60.024;18.770;2023-03-11T03:36:25;1.10;;;0.70;;
15067;SDS011;7633;60.024;18.770;2023-03-11T03:38:57;0.70;;;0.60;;
15067;SDS011;7633;60.024;18.770;2023-03-11T03:41:23;1.00;;;0.77;;
15067;SDS011;7633;60.024;18.770;2023-03-11T03:43:48;0.53;;;0.53;;
15067;SDS011;7633;60.024;18.770;2023-03-11T03:46:14;0.80;;;0.80;;
15067;SDS011;7633;60.024;18.770;2023-03-11T03:48:40;1.00;;;0.80;;
15067;SDS011;7633;60.024;18.770;2023-03-11T03:51:07;1.30;;;0.80;;
15067;SDS011;7633;60.024;18.770;2023-03-11T03:53:33;0.90;;;0.80;;
15067;SDS011;7633;60.024;18.770;2023-03-11T03:56:02;0.80;;;0.80;;
15067;SDS011;7633;60.024;18.770;2023-03-11T03:58:28;1.47;;;1.00;;
15067;SDS011;7633;60.024;18.770;2023-03-11T04:00:57;3.30;;;2.10;;
15067;SDS011;7633;60.024;18.770;2023-03-11T04:03:23;4.20;;;1.90;;
15067;SDS011;7633;60.024;18.770;2023-03-11T04:05:48;1.87;;;1.40;;
15067;SDS011;7633;60.024;18.770;2023-03-11T04:08:14;1.00;;;0.90;;
15067;SDS011;7633;60.024;18.770;2023-03-11T04:10:39;1.60;;;0.90;;
15067;SDS011;7633;60.024;18.770;2023-03-11T04:13:04;2.23;;;1.13;;
15067;SDS011;7633;60.024;18.770;2023-03-11T04:15:30;0.90;;;0.87;;
15067;SDS011;7633;60.024;18.770;2023-03-11T04:17:55;1.40;;;0.80;;
15067;SDS011;7633;60.024;18.770;2023-03-11T04:20:21;1.63;;;0.80;;
15067;SDS011;7633;60.024;18.770;2023-03-11T04:22:46;0.30;;;0.30;;
15067;SDS011;7633;60.024;18.770;2023-03-11T04:25:12;1.10;;;0.87;;
15067;SDS011;7633;60.024;18.770;2023-03-11T04:27:40;1.10;;;0.90;;
15067;SDS011;7633;60.024;18.770;2023-03-11T04:30:15;3.53;;;0.97;;
15067;SDS011;7633;60.024;18.770;2023-03-11T04:32:40;1.00;;;0.60;;
15067;SDS011;7633;60.024;18.770;2023-03-11T04:35:06;1.77;;;1.00;;
15067;SDS011;7633;60.024;18.770;2023-03-11T04:37:32;1.20;;;0.60;;
15067;SDS011;7633;60.024;18.770;2023-03-11T04:39:57;0.87;;;0.80;;
15067;SDS011;7633;60.024;18.770;2023-03-11T04:42:23;1.53;;;1.13;;
15067;SDS011;7633;60.024;18.770;2023-03-11T04:44:48;2.97;;;1.50;;
15067;SDS011;7633;60.024;18.770;2023-03-11T04:47:13;1.90;;;1.00;;
15067;SDS011;7633;60.024;18.770;2023-03-11T04:49:39;1.70;;;0.80;;
15067;SDS011;7633;60.024;18.770;2023-03-11T04:52:04;1.40;;;1.10;;
15067;SDS011;7633;60.024;18.770;2023-03-11T04:54:29;1.37;;;0.93;;
15067;SDS011;7633;60.024;18.770;2023-03-11T04:56:55;1.03;;;0.90;;
15067;SDS011;7633;60.024;18.770;2023-03-11T04:59:20;1.97;;;1.10;;
15067;SDS011;7633;60.024;18.770;2023-03-11T05:01:45;0.77;;;0.77;;
15067;SDS011;7633;60.024;18.770;2023-03-11T05:04:10;1.50;;;0.87;;
15067;SDS011;7633;60.024;18.770;2023-03-11T05:06:36;1.03;;;1.03;;
15067;SDS011;7633;60.024;18.770;2023-03-11T05:09:02;1.00;;;0.70;;
15067;SDS011;7633;60.024;18.770;2023-03-11T05:11:29;1.97;;;0.70;;
15067;SDS011;7633;60.024;18.770;2023-03-11T05:13:55;0.60;;;0.60;;
15067;SDS011;7633;60.024;18.770;2023-03-11T05:16:20;1.03;;;0.90;;
15067;SDS011;7633;60.024;18.770;2023-03-11T05:18:46;1.27;;;0.80;;
15067;SDS011;7633;60.024;18.770;2023-03-11T05:21:11;1.27;;;1.07;;
15067;SDS011;7633;60.024;18.770;2023-03-11T05:23:36;2.50;;;0.90;;
15067;SDS011;7633;60.024;18.770;2023-03-11T05:26:02;1.30;;;1.03;;
15067;SDS011;7633;60.024;18.770;2023-03-11T05:28:27;2.03;;;0.90;;
15067;SDS011;7633;60.024;18.770;2023-03-11T05:30:52;1.37;;;1.00;;
15067;SDS011;7633;60.024;18.770;2023-03-11T05:33:18;2.00;;;1.07;;
15067;SDS011;7633;60.024;18.770;2023-03-11T05:35:43;1.43;;;1.10;;
15067;SDS011;7633;60.024;18.770;2023-03-11T05:38:08;1.70;;;0.80;;
15067;SDS011;7633;60.024;18.770;2023-03-11T05:40:34;1.10;;;0.97;;
15067;SDS011;7633;60.024;18.770;2023-03-11T05:42:59;1.30;;;1.20;;
15067;SDS011;7633;60.024;18.770;2023-03-11T05:45:24;2.30;;;0.77;;
15067;SDS011;7633;60.024;18.770;2023-03-11T05:47:53;0.40;;;0.40;;
15067;SDS011;7633;60.024;18.770;2023-03-11T05:50:18;0.80;;;0.57;;
15067;SDS011;7633;60.024;18.770;2023-03-11T05:52:43;1.93;;;1.10;;
15067;SDS011;7633;60.024;18.770;2023-03-11T05:55:09;1.47;;;1.03;;
15067;SDS011;7633;60.024;18.770;2023-03-11T05:57:36;1.53;;;0.90;;
15067;SDS011;7633;60.024;18.770;2023-03-11T06:00:02;1.00;;;0.80;;
15067;SDS011;7633;60.024;18.770;2023-03-11T06:02:29;0.90;;;0.90;;
15067;SDS011;7633;60.024;18.770;2023-03-11T06:04:55;0.97;;;0.70;;
15067;SDS011;7633;60.024;18.770;2023-03-11T06:07:20;1.30;;;1.20;;
15067;SDS011;7633;60.024;18.770;2023-03-11T06:09:45;1.10;;;0.87;;
15067;SDS011;7633;60.024;18.770;2023-03-11T06:12:11;2.23;;;1.03;;
15067;SDS011;7633;60.024;18.770;2023-03-11T06:14:36;1.00;;;0.87;;
15067;SDS011;7633;60.024;18.770;2023-03-11T06:17:02;1.07;;;0.97;;
15067;SDS011;7633;60.024;18.770;2023-03-11T06:19:28;1.47;;;1.00;;
15067;SDS011;7633;60.024;18.770;2023-03-11T06:21:53;1.40;;;0.57;;
15067;SDS011;7633;60.024;18.770;2023-03-11T06:24:18;1.47;;;1.03;;
15067;SDS011;7633;60.024;18.770;2023-03-11T06:26:43;1.53;;;0.80;;
15067;SDS011;7633;60.024;18.770;2023-03-11T06:29:12;1.07;;;0.97;;
15067;SDS011;7633;60.024;18.770;2023-03-11T06:31:38;0.97;;;0.97;;
15067;SDS011;7633;60.024;18.770;2023-03-11T06:34:04;1.03;;;0.93;;
15067;SDS011;7633;60.024;18.770;2023-03-11T06:36:30;1.17;;;0.90;;
15067;SDS011;7633;60.024;18.770;2023-03-11T06:38:56;1.30;;;0.90;;
15067;SDS011;7633;60.024;18.770;2023-03-11T06:41:21;0.77;;;0.77;;
15067;SDS011;7633;60.024;18.770;2023-03-11T06:43:46;0.90;;;0.70;;
15067;SDS011;7633;60.024;18.770;2023-03-11T06:46:19;0.97;;;0.90;;
15067;SDS011;7633;60.024;18.770;2023-03-11T06:48:45;0.70;;;0.70;;
15067;SDS011;7633;60.024;18.770;2023-03-11T06:51:10;0.97;;;0.70;;
15067;SDS011;7633;60.024;18.770;2023-03-11T06:53:36;1.03;;;0.77;;
15067;SDS011;7633;60.024;18.770;2023-03-11T06:56:05;0.90;;;0.90;;
15067;SDS011;7633;60.024;18.770;2023-03-11T06:58:31;1.30;;;1.00;;
15067;SDS011;7633;60.024;18.770;2023-03-11T07:01:00;0.80;;;0.80;;
15067;SDS011;7633;60.024;18.770;2023-03-11T07:03:26;0.97;;;0.77;;
15067;SDS011;7633;60.024;18.770;2023-03-11T07:05:51;0.63;;;0.60;;
15067;SDS011;7633;60.024;18.770;2023-03-11T07:08:17;0.80;;;0.80;;
15067;SDS011;7633;60.024;18.770;2023-03-11T07:10:42;1.00;;;0.80;;
15067;SDS011;7633;60.024;18.770;2023-03-11T07:13:08;1.10;;;0.90;;
15067;SDS011;7633;60.024;18.770;2023-03-11T07:15:33;1.87;;;0.97;;
15067;SDS011;7633;60.024;18.770;2023-03-11T07:17:59;2.30;;;0.80;;
15067;SDS011;7633;60.024;18.770;2023-03-11T07:20:25;1.33;;;1.03;;
15067;SDS011;7633;60.024;18.770;2023-03-11T07:22:50;1.13;;;1.03;;
15067;SDS011;7633;60.024;18.770;2023-03-11T07:25:15;0.80;;;0.80;;
15067;SDS011;7633;60.024;18.770;2023-03-11T07:27:41;1.07;;;0.87;;
15067;SDS011;7633;60.024;18.770;2023-03-11T07:30:09;1.33;;;1.10;;
15067;SDS011;7633;60.024;18.770;2023-03-11T07:32:37;0.90;;;0.80;;
15067;SDS011;7633;60.024;18.770;2023-03-11T07:35:02;1.10;;;0.60;;
15067;SDS011;7633;60.024;18.770;2023-03-11T07:37:28;1.33;;;0.63;;
15067;SDS011;7633;60.024;18.770;2023-03-11T07:39:54;0.90;;;0.80;;
15067;SDS011;7633;60.024;18.770;2023-03-11T07:42:19;1.30;;;1.03;;
15067;SDS011;7633;60.024;18.770;2023-03-11T07:44:52;1.10;;;1.00;;
15067;SDS011;7633;60.024;18.770;2023-03-11T07:47:21;0.97;;;0.80;;
15067;SDS011;7633;60.024;18.770;2023-03-11T07:49:49;1.30;;;1.20;;
15067;SDS011;7633;60.024;18.770;2023-03-11T07:52:18;1.30;;;0.97;;
15067;SDS011;7633;60.024;18.770;2023-03-11T07:54:44;1.10;;;1.00;;
15067;SDS011;7633;60.024;18.770;2023-03-11T07:57:11;1.03;;;1.00;;
15067;SDS011;7633;60.024;18.770;2023-03-11T07:59:41;1.57;;;1.17;;
15067;SDS011;7633;60.024;18.770;2023-03-11T08:02:09;1.73;;;1.20;;
15067;SDS011;7633;60.024;18.770;2023-03-11T08:04:35;1.10;;;0.90;;
15067;SDS011;7633;60.024;18.770;2023-03-11T08:07:00;2.53;;;1.30;;
15067;SDS011;7633;60.024;18.770;2023-03-11T08:09:31;1.30;;;1.20;;
15067;SDS011;7633;60.024;18.770;2023-03-11T08:11:56;1.50;;;1.30;;
15067;SDS011;7633;60.024;18.770;2023-03-11T08:14:21;1.27;;;1.00;;
15067;SDS011;7633;60.024;18.770;2023-03-11T08:16:47;2.10;;;2.00;;
15067;SDS011;7633;60.024;18.770;2023-03-11T08:19:12;2.27;;;1.37;;
15067;SDS011;7633;60.024;18.770;2023-03-11T08:21:40;1.73;;;1.27;;
15067;SDS011;7633;60.024;18.770;2023-03-11T08:24:05;1.13;;;1.10;;
15067;SDS011;7633;60.024;18.770;2023-03-11T08:26:31;1.17;;;1.00;;
15067;SDS011;7633;60.024;18.770;2023-03-11T08:28:57;1.50;;;1.20;;
15067;SDS011;7633;60.024;18.770;2023-03-11T08:31:23;1.97;;;1.47;;
15067;SDS011;7633;60.024;18.770;2023-03-11T08:33:50;3.13;;;1.03;;
15067;SDS011;7633;60.024;18.770;2023-03-11T08:36:16;1.20;;;1.00;;
15067;SDS011;7633;60.024;18.770;2023-03-11T08:38:41;1.10;;;1.00;;
15067;SDS011;7633;60.024;18.770;2023-03-11T08:41:06;1.33;;;0.90;;
15067;SDS011;7633;60.024;18.770;2023-03-11T08:43:31;1.10;;;0.90;;
15067;SDS011;7633;60.024;18.770;2023-03-11T08:45:58;1.00;;;0.90;;
15067;SDS011;7633;60.024;18.770;2023-03-11T08:48:24;0.77;;;0.77;;
15067;SDS011;7633;60.024;18.770;2023-03-11T08:50:49;1.20;;;1.00;;
15067;SDS011;7633;60.024;18.770;2023-03-11T08:53:15;1.40;;;1.10;;
15067;SDS011;7633;60.024;18.770;2023-03-11T08:55:40;1.10;;;0.90;;
15067;SDS011;7633;60.024;18.770;2023-03-11T08:58:05;1.27;;;1.07;;
15067;SDS011;7633;60.024;18.770;2023-03-11T09:00:31;1.13;;;0.90;;
15067;SDS011;7633;60.024;18.770;2023-03-11T09:02:56;1.10;;;1.00;;
15067;SDS011;7633;60.024;18.770;2023-03-11T09:05:22;1.00;;;0.90;;
15067;SDS011;7633;60.024;18.770;2023-03-11T09:07:47;0.83;;;0.83;;
15067;SDS011;7633;60.024;18.770;2023-03-11T09:10:13;1.00;;;0.90;;
15067;SDS011;7633;60.024;18.770;2023-03-11T09:12:39;1.00;;;0.80;;
15067;SDS011;7633;60.024;18.770;2023-03-11T09:15:05;0.90;;;0.67;;
15067;SDS011;7633;60.024;18.770;2023-03-11T09:17:30;1.00;;;0.80;;
15067;SDS011;7633;60.024;18.770;2023-03-11T09:19:55;1.00;;;0.90;;
15067;SDS011;7633;60.024;18.770;2023-03-11T09:22:21;1.03;;;0.80;;
15067;SDS011;7633;60.024;18.770;2023-03-11T09:24:46;1.10;;;0.83;;
15067;SDS011;7633;60.024;18.770;2023-03-11T09:27:11;0.87;;;0.80;;
15067;SDS011;7633;60.024;18.770;2023-03-11T09:29:37;0.80;;;0.80;;
15067;SDS011;7633;60.024;18.770;2023-03-11T09:32:03;0.80;;;0.70;;
15067;SDS011;7633;60.024;18.770;2023-03-11T09:34:28;1.23;;;0.90;;
15067;SDS011;7633;60.024;18.770;2023-03-11T09:36:53;0.70;;;0.70;;
15067;SDS011;7633;60.024;18.770;2023-03-11T09:39:19;0.90;;;0.80;;
15067;SDS011;7633;60.024;18.770;2023-03-11T09:44:23;0.80;;;0.80;;
15067;SDS011;7633;60.024;18.770;2023-03-11T09:54:50;0.88;;;0.88;;
15067;SDS011;7633;60.024;18.770;2023-03-11T09:57:35;0.73;;;0.73;;
15067;SDS011;7633;60.024;18.770;2023-03-11T10:00:02;1.23;;;1.00;;
15067;SDS011;7633;60.024;18.770;2023-03-11T10:02:28;1.20;;;0.90;;
15067;SDS011;7633;60.024;18.770;2023-03-11T10:05:00;1.00;;;0.90;;
15067;SDS011;7633;60.024;18.770;2023-03-11T10:07:27;1.20;;;1.07;;
15067;SDS011;7633;60.024;18.770;2023-03-11T10:09:56;1.00;;;0.80;;
15067;SDS011;7633;60.024;18.770;2023-03-11T10:15:13;1.25;;;0.80;;
15067;SDS011;7633;60.024;18.770;2023-03-11T10:20:08;0.90;;;0.90;;
15067;SDS011;7633;60.024;18.770;2023-03-11T10:25:10;0.82;;;0.82;;
15067;SDS011;7633;60.024;18.770;2023-03-11T10:30:22;0.70;;;0.70;;
15067;SDS011;7633;60.024;18.770;2023-03-11T10:33:00;0.70;;;0.70;;
15067;SDS011;7633;60.024;18.770;2023-03-11T10:35:40;0.77;;;0.77;;
15067;SDS011;7633;60.024;18.770;2023-03-11T10:38:17;0.80;;;0.70;;
15067;SDS011;7633;60.024;18.770;2023-03-11T10:40:44;0.70;;;0.63;;
15067;SDS011;7633;60.024;18.770;2023-03-11T10:43:12;1.80;;;0.80;;
15067;SDS011;7633;60.024;18.770;2023-03-11T10:45:39;2.30;;;1.00;;
15067;SDS011;7633;60.024;18.770;2023-03-11T10:48:08;0.50;;;0.50;;
15067;SDS011;7633;60.024;18.770;2023-03-11T10:50:34;0.50;;;0.50;;
15067;SDS011;7633;60.024;18.770;2023-03-11T10:53:11;0.60;;;0.60;;
15067;SDS011;7633;60.024;18.770;2023-03-11T10:55:43;0.90;;;0.80;;
15067;SDS011;7633;60.024;18.770;2023-03-11T10:58:11;0.77;;;0.57;;
15067;SDS011;7633;60.024;18.770;2023-03-11T11:00:36;1.50;;;0.70;;
15067;SDS011;7633;60.024;18.770;2023-03-11T11:03:02;1.43;;;0.80;;
15067;SDS011;7633;60.024;18.770;2023-03-11T11:05:29;1.23;;;0.90;;
15067;SDS011;7633;60.024;18.770;2023-03-11T11:08:13;1.40;;;0.90;;
15067;SDS011;7633;60.024;18.770;2023-03-11T11:13:15;1.40;;;0.90;;
15067;SDS011;7633;60.024;18.770;2023-03-11T11:15:50;1.53;;;0.80;;
15067;SDS011;7633;60.024;18.770;2023-03-11T11:21:03;1.13;;;0.90;;
15067;SDS011;7633;60.024;18.770;2023-03-11T11:23:36;1.77;;;1.10;;
15067;SDS011;7633;60.024;18.770;2023-03-11T11:26:04;2.10;;;0.93;;
15067;SDS011;7633;60.024;18.770;2023-03-11T11:28:30;1.77;;;0.73;;
15067;SDS011;7633;60.024;18.770;2023-03-11T11:31:00;3.00;;;1.30;;
15067;SDS011;7633;60.024;18.770;2023-03-11T11:35:51;1.37;;;1.00;;
15067;SDS011;7633;60.024;18.770;2023-03-11T11:38:20;1.63;;;1.23;;
15067;SDS011;7633;60.024;18.770;2023-03-11T11:40:46;1.20;;;0.90;;
15067;SDS011;7633;60.024;18.770;2023-03-11T11:43:13;1.20;;;0.90;;
15067;SDS011;7633;60.024;18.770;2023-03-11T11:45:41;1.50;;;0.80;;
15067;SDS011;7633;60.024;18.770;2023-03-11T11:50:56;0.60;;;0.60;;
15067;SDS011;7633;60.024;18.770;2023-03-11T11:56:07;1.23;;;0.87;;
15067;SDS011;7633;60.024;18.770;2023-03-11T11:58:32;1.33;;;0.90;;
15067;SDS011;7633;60.024;18.770;2023-03-11T12:01:14;0.90;;;0.80;;
15067;SDS011;7633;60.024;18.770;2023-03-11T12:03:49;0.80;;;0.80;;
15067;SDS011;7633;60.024;18.770;2023-03-11T12:11:18;1.10;;;0.90;;
15067;SDS011;7633;60.024;18.770;2023-03-11T12:19:04;1.00;;;0.83;;
15067;SDS011;7633;60.024;18.770;2023-03-11T12:21:35;1.17;;;0.80;;
15067;SDS011;7633;60.024;18.770;2023-03-11T12:26:49;0.93;;;0.80;;
15067;SDS011;7633;60.024;18.770;2023-03-11T12:31:42;1.50;;;0.80;;
15067;SDS011;7633;60.024;18.770;2023-03-11T12:34:11;0.97;;;0.70;;
15067;SDS011;7633;60.024;18.770;2023-03-11T12:36:39;0.80;;;0.60;;
15067;SDS011;7633;60.024;18.770;2023-03-11T12:39:05;0.97;;;0.80;;
15067;SDS011;7633;60.024;18.770;2023-03-11T12:41:32;1.27;;;0.77;;
15067;SDS011;7633;60.024;18.770;2023-03-11T12:44:02;1.13;;;0.80;;
15067;SDS011;7633;60.024;18.770;2023-03-11T12:46:58;1.00;;;0.90;;
15067;SDS011;7633;60.024;18.770;2023-03-11T12:49:27;0.73;;;0.67;;
15067;SDS011;7633;60.024;18.770;2023-03-11T12:52:00;0.70;;;0.70;;
15067;SDS011;7633;60.024;18.770;2023-03-11T12:54:27;0.80;;;0.80;;
15067;SDS011;7633;60.024;18.770;2023-03-11T12:57:04;0.90;;;0.70;;
15067;SDS011;7633;60.024;18.770;2023-03-11T13:07:47;0.97;;;0.70;;
15067;SDS011;7633;60.024;18.770;2023-03-11T13:12:52;0.80;;;0.60;;
15067;SDS011;7633;60.024;18.770;2023-03-11T13:18:45;1.93;;;0.70;;
15067;SDS011;7633;60.024;18.770;2023-03-11T13:30:43;0.90;;;0.80;;
15067;SDS011;7633;60.024;18.770;2023-03-11T13:33:15;1.07;;;0.67;;
15067;SDS011;7633;60.024;18.770;2023-03-11T13:35:50;0.40;;;0.40;;
15067;SDS011;7633;60.024;18.770;2023-03-11T13:41:02;0.77;;;0.60;;
15067;SDS011;7633;60.024;18.770;2023-03-11T13:43:36;0.50;;;0.50;;
15067;SDS011;7633;60.024;18.770;2023-03-11T13:46:19;0.97;;;0.70;;
15067;SDS011;7633;60.024;18.770;2023-03-11T13:48:48;0.97;;;0.70;;
15067;SDS011;7633;60.024;18.770;2023-03-11T13:51:21;1.33;;;0.63;;
15067;SDS011;7633;60.024;18.770;2023-03-11T13:53:56;0.60;;;0.50;;
15067;SDS011;7633;60.024;18.770;2023-03-11T13:56:26;1.30;;;0.70;;
15067;SDS011;7633;60.024;18.770;2023-03-11T13:58:52;0.73;;;0.50;;
15067;SDS011;7633;60.024;18.770;2023-03-11T14:01:18;0.90;;;0.60;;
15067;SDS011;7633;60.024;18.770;2023-03-11T14:03:44;0.90;;;0.70;;
15067;SDS011;7633;60.024;18.770;2023-03-11T14:06:19;0.70;;;0.70;;
15067;SDS011;7633;60.024;18.770;2023-03-11T14:08:51;0.97;;;0.50;;
15067;SDS011;7633;60.024;18.770;2023-03-11T14:11:16;0.90;;;0.60;;
15067;SDS011;7633;60.024;18.770;2023-03-11T14:13:43;0.50;;;0.50;;
15067;SDS011;7633;60.024;18.770;2023-03-11T14:16:09;1.83;;;0.60;;
15067;SDS011;7633;60.024;18.770;2023-03-11T14:21:17;0.70;;;0.50;;
15067;SDS011;7633;60.024;18.770;2023-03-11T14:23:47;0.50;;;0.40;;
15067;SDS011;7633;60.024;18.770;2023-03-11T14:26:19;1.40;;;0.53;;
15067;SDS011;7633;60.024;18.770;2023-03-11T14:28:47;1.40;;;0.50;;
15067;SDS011;7633;60.024;18.770;2023-03-11T14:33:59;0.77;;;0.50;;
15067;SDS011;7633;60.024;18.770;2023-03-11T14:36:29;0.50;;;0.40;;
15067;SDS011;7633;60.024;18.770;2023-03-11T14:38:54;0.90;;;0.80;;
15067;SDS011;7633;60.024;18.770;2023-03-11T14:41:21;1.57;;;0.70;;
15067;SDS011;7633;60.024;18.770;2023-03-11T14:43:47;0.77;;;0.40;;
15067;SDS011;7633;60.024;18.770;2023-03-11T14:46:21;0.50;;;0.40;;
15067;SDS011;7633;60.024;18.770;2023-03-11T14:48:48;1.27;;;0.60;;
15067;SDS011;7633;60.024;18.770;2023-03-11T14:51:16;2.33;;;0.63;;
15067;SDS011;7633;60.024;18.770;2023-03-11T14:53:44;0.70;;;0.70;;
15067;SDS011;7633;60.024;18.770;2023-03-11T14:56:17;0.67;;;0.50;;
15067;SDS011;7633;60.024;18.770;2023-03-11T14:58:46;0.70;;;0.53;;
15067;SDS011;7633;60.024;18.770;2023-03-11T15:01:18;0.90;;;0.40;;
15067;SDS011;7633;60.024;18.770;2023-03-11T15:03:58;1.20;;;0.70;;
15067;SDS011;7633;60.024;18.770;2023-03-11T15:06:27;1.20;;;0.57;;
15067;SDS011;7633;60.024;18.770;2023-03-11T15:09:00;0.80;;;0.70;;
15067;SDS011;7633;60.024;18.770;2023-03-11T15:11:26;0.53;;;0.50;;
15067;SDS011;7633;60.024;18.770;2023-03-11T15:13:52;1.07;;;0.80;;
15067;SDS011;7633;60.024;18.770;2023-03-11T15:18:50;1.27;;;0.60;;
15067;SDS011;7633;60.024;18.770;2023-03-11T15:21:18;0.77;;;0.73;;
15067;SDS011;7633;60.024;18.770;2023-03-11T15:23:45;0.77;;;0.77;;
15067;SDS011;7633;60.024;18.770;2023-03-11T15:26:18;1.10;;;0.80;;
15067;SDS011;7633;60.024;18.770;2023-03-11T15:28:44;1.07;;;0.90;;
15067;SDS011;7633;60.024;18.770;2023-03-11T15:31:13;1.13;;;1.03;;
15067;SDS011;7633;60.024;18.770;2023-03-11T15:33:43;1.20;;;1.03;;
15067;SDS011;7633;60.024;18.770;2023-03-11T15:36:31;0.93;;;0.80;;
15067;SDS011;7633;60.024;18.770;2023-03-11T15:39:10;1.10;;;1.00;;
15067;SDS011;7633;60.024;18.770;2023-03-11T15:41:37;1.30;;;1.20;;
15067;SDS011;7633;60.024;18.770;2023-03-11T15:44:03;0.93;;;0.93;;
15067;SDS011;7633;60.024;18.770;2023-03-11T15:46:32;1.27;;;1.17;;
15067;SDS011;7633;60.024;18.770;2023-03-11T15:48:57;1.20;;;1.10;;
15067;SDS011;7633;60.024;18.770;2023-03-11T15:51:22;1.27;;;1.17;;
15067;SDS011;7633;60.024;18.770;2023-03-11T15:53:48;1.35;;;1.20;;
15067;SDS011;7633;60.024;18.770;2023-03-11T15:56:15;1.30;;;1.20;;
15067;SDS011;7633;60.024;18.770;2023-03-11T15:58:42;1.43;;;1.00;;
15067;SDS011;7633;60.024;18.770;2023-03-11T16:01:08;1.93;;;1.03;;
15067;SDS011;7633;60.024;18.770;2023-03-11T16:03:33;1.50;;;1.03;;
15067;SDS011;7633;60.024;18.770;2023-03-11T16:05:59;1.57;;;1.10;;
15067;SDS011;7633;60.024;18.770;2023-03-11T16:08:24;1.50;;;0.87;;
15067;SDS011;7633;60.024;18.770;2023-03-11T16:10:49;1.07;;;0.80;;
15067;SDS011;7633;60.024;18.770;2023-03-11T16:13:15;0.87;;;0.83;;
15067;SDS011;7633;60.024;18.770;2023-03-11T16:15:41;1.40;;;1.00;;